Time;durP1;ratioP1;P1;durP2;ratioP2;P2;SDS_P1;SDS_P2;PMS_P1;PMS_P2;Temp;Humidity;BMP_temperature;BMP_pressure;BME280_temperature;BME280_humidity;BME280_pressure;Samples;Min_cycle;Max_cycle;Signal;HPM_P1;HPM_P2
2021/12/09 00:01:44;;;;;;;1.98;1.27;;;3.50;99.90;;;;;;4989421;28;20763;-82
2021/12/09 00:04:13;;;;;;;7.82;2.08;;;3.50;99.90;;;;;;4975122;28;20706;-82
2021/12/09 00:06:39;;;;;;;14.95;2.80;;;3.50;99.90;;;;;;5002663;28;20030;-83
2021/12/09 00:09:10;;;;;;;8.63;2.30;;;3.50;99.90;;;;;;5006259;28;20036;-83
2021/12/09 00:11:44;;;;;;;7.57;2.83;;;3.50;99.90;;;;;;4976058;28;20616;-83
2021/12/09 00:14:12;;;;;;;3.90;1.40;;;3.50;99.90;;;;;;5005459;28;20506;-82
2021/12/09 00:16:37;;;;;;;4.40;2.45;;;3.50;99.90;;;;;;4996333;28;20111;-82
2021/12/09 00:19:03;;;;;;;14.57;2.00;;;3.40;99.90;;;;;;5004612;28;20652;-82
2021/12/09 00:21:28;;;;;;;3.75;1.85;;;3.40;99.90;;;;;;5001598;28;20598;-82
2021/12/09 00:23:54;;;;;;;7.18;2.13;;;3.40;99.90;;;;;;4988717;28;20116;-82
2021/12/09 00:26:20;;;;;;;9.38;1.70;;;3.40;99.90;;;;;;4975071;28;20112;-83
2021/12/09 00:28:45;;;;;;;5.68;2.33;;;3.40;99.90;;;;;;4991355;28;20033;-82
2021/12/09 00:31:12;;;;;;;4.60;2.78;;;3.50;99.90;;;;;;4972404;28;20032;-83
2021/12/09 00:33:43;;;;;;;8.70;2.17;;;3.40;99.90;;;;;;4975925;28;20064;-82
2021/12/09 00:36:09;;;;;;;8.77;2.97;;;3.40;99.90;;;;;;5004783;28;20095;-82
2021/12/09 00:38:40;;;;;;;3.88;2.13;;;3.40;99.90;;;;;;5000140;28;20549;-82
2021/12/09 00:41:07;;;;;;;9.50;3.22;;;3.40;99.90;;;;;;4977456;28;20033;-83
2021/12/09 00:43:33;;;;;;;15.48;2.95;;;3.30;99.90;;;;;;4983045;28;20037;-82
2021/12/09 00:45:59;;;;;;;3.83;2.10;;;3.30;99.90;;;;;;4980867;28;20549;-82
2021/12/09 00:48:26;;;;;;;3.42;1.65;;;3.30;99.90;;;;;;4986062;28;20034;-82
2021/12/09 00:50:52;;;;;;;4.32;1.27;;;3.30;99.90;;;;;;5000900;28;20025;-83
2021/12/09 00:53:18;;;;;;;7.72;2.33;;;3.30;99.90;;;;;;4990481;28;20084;-82
2021/12/09 00:55:43;;;;;;;10.95;3.38;;;3.30;99.90;;;;;;4990771;28;20060;-82
2021/12/09 00:58:09;;;;;;;14.35;3.17;;;3.30;99.90;;;;;;4987013;28;20397;-83
2021/12/09 01:00:34;;;;;;;9.15;3.22;;;3.20;99.90;;;;;;4973346;28;20512;-82
2021/12/09 01:03:00;;;;;;;10.35;2.40;;;3.20;99.90;;;;;;4988293;28;20029;-82
2021/12/09 01:05:26;;;;;;;9.13;2.70;;;3.20;99.90;;;;;;4973748;28;20033;-82
2021/12/09 01:07:51;;;;;;;5.47;2.50;;;3.20;99.90;;;;;;4980684;28;20742;-83
2021/12/09 01:10:17;;;;;;;8.57;2.83;;;3.20;99.90;;;;;;4989460;28;20033;-82
2021/12/09 01:12:43;;;;;;;10.50;3.13;;;3.20;99.90;;;;;;4990234;28;20156;-83
2021/12/09 01:15:09;;;;;;;9.15;3.20;;;3.10;99.90;;;;;;4972154;28;20105;-82
2021/12/09 01:17:35;;;;;;;4.88;2.97;;;3.00;99.90;;;;;;4989682;28;20037;-82
2021/12/09 01:20:00;;;;;;;6.40;3.42;;;3.00;99.90;;;;;;5003256;28;20625;-82
2021/12/09 01:22:34;;;;;;;4.47;2.28;;;3.00;99.90;;;;;;4985706;28;20057;-82
2021/12/09 01:25:00;;;;;;;6.68;2.97;;;3.10;99.90;;;;;;4974631;28;20064;-83
2021/12/09 01:27:26;;;;;;;6.78;2.72;;;3.10;99.90;;;;;;4989982;28;20064;-82
2021/12/09 01:29:55;;;;;;;7.18;3.35;;;3.00;99.90;;;;;;5003623;28;20034;-82
2021/12/09 01:32:28;;;;;;;7.65;2.50;;;3.00;99.90;;;;;;5004465;28;20445;-82
2021/12/09 01:34:54;;;;;;;6.50;2.40;;;3.00;99.90;;;;;;5001899;28;20037;-82
2021/12/09 01:37:20;;;;;;;7.03;2.83;;;2.90;99.90;;;;;;4980647;28;20964;-82
2021/12/09 01:39:46;;;;;;;6.38;2.50;;;2.90;99.90;;;;;;4986653;28;20029;-82
2021/12/09 01:42:12;;;;;;;9.63;2.80;;;2.90;99.90;;;;;;4989131;28;20042;-82
2021/12/09 01:44:37;;;;;;;8.85;2.67;;;2.90;99.90;;;;;;4969924;28;20088;-82
2021/12/09 01:47:03;;;;;;;6.90;2.38;;;2.80;99.90;;;;;;4974678;28;20440;-82
2021/12/09 01:49:28;;;;;;;5.70;2.72;;;2.70;99.90;;;;;;5003367;28;20025;-83
2021/12/09 01:51:54;;;;;;;5.60;2.78;;;2.70;99.90;;;;;;4967951;28;20041;-82
2021/12/09 01:54:23;;;;;;;8.07;3.72;;;2.70;99.90;;;;;;4991598;28;20055;-82
2021/12/09 01:56:48;;;;;;;6.53;2.97;;;2.70;99.90;;;;;;5001301;28;20265;-82
2021/12/09 01:59:14;;;;;;;9.85;2.70;;;2.70;99.90;;;;;;4984443;28;20037;-81
2021/12/09 02:01:39;;;;;;;7.40;2.22;;;2.70;99.90;;;;;;4984218;28;20038;-82
2021/12/09 02:04:06;;;;;;;10.63;2.80;;;2.70;99.90;;;;;;4972247;28;20438;-82
2021/12/09 02:06:33;;;;;;;9.98;3.17;;;2.70;99.90;;;;;;4981187;28;20034;-82
2021/12/09 02:09:00;;;;;;;4.93;2.83;;;2.70;99.90;;;;;;4987104;28;20042;-82
2021/12/09 02:11:25;;;;;;;10.55;3.15;;;2.70;99.90;;;;;;4989772;28;20037;-82
2021/12/09 02:13:54;;;;;;;8.15;2.63;;;2.60;99.90;;;;;;4987382;28;20029;-82
2021/12/09 02:16:21;;;;;;;11.38;3.22;;;2.60;99.90;;;;;;4975826;28;20494;-82
2021/12/09 02:18:46;;;;;;;11.30;3.30;;;2.60;99.90;;;;;;4998975;28;20048;-82
2021/12/09 02:21:20;;;;;;;9.65;2.80;;;2.60;99.90;;;;;;4989892;28;20040;-82
2021/12/09 02:23:51;;;;;;;5.45;3.38;;;2.60;99.90;;;;;;4972158;28;20036;-82
2021/12/09 02:26:18;;;;;;;11.35;3.97;;;2.50;99.90;;;;;;4968813;28;20030;-82
2021/12/09 02:28:44;;;;;;;9.82;2.85;;;2.50;99.90;;;;;;4974132;28;20041;-82
2021/12/09 02:31:10;;;;;;;8.30;3.28;;;2.40;99.90;;;;;;4967689;28;20034;-82
2021/12/09 02:33:36;;;;;;;13.27;4.43;;;2.40;99.90;;;;;;5004000;28;20038;-82
2021/12/09 02:36:01;;;;;;;10.05;2.72;;;2.40;99.90;;;;;;5002362;28;20040;-82
2021/12/09 02:38:27;;;;;;;15.05;3.15;;;2.40;99.90;;;;;;4966659;28;20029;-82
2021/12/09 02:40:53;;;;;;;7.65;3.15;;;2.30;99.90;;;;;;4982615;28;20444;-82
2021/12/09 02:43:28;;;;;;;9.77;4.07;;;2.40;99.90;;;;;;4973934;28;20041;-82
2021/12/09 02:45:55;;;;;;;8.52;3.20;;;2.30;99.90;;;;;;4986222;28;20041;-82
2021/12/09 02:48:21;;;;;;;8.63;3.13;;;2.30;99.90;;;;;;4984125;28;20030;-82
2021/12/09 02:50:47;;;;;;;6.00;2.97;;;2.20;99.90;;;;;;4970896;28;20038;-82
2021/12/09 02:53:13;;;;;;;8.43;3.65;;;2.20;99.90;;;;;;4997655;28;20026;-82
2021/12/09 02:55:38;;;;;;;11.32;3.53;;;2.10;99.90;;;;;;4989253;28;20037;-82
2021/12/09 02:58:04;;;;;;;8.95;2.90;;;2.10;99.90;;;;;;4985938;28;20041;-82
2021/12/09 03:00:29;;;;;;;17.20;7.68;;;2.00;99.90;;;;;;4988489;28;20551;-82
2021/12/09 03:02:57;;;;;;;7.72;3.88;;;2.00;99.90;;;;;;4985218;28;20033;-82
2021/12/09 03:05:22;;;;;;;11.18;3.08;;;2.10;99.90;;;;;;4973020;28;20372;-82
2021/12/09 03:07:48;;;;;;;9.93;3.60;;;2.10;99.90;;;;;;5003627;28;20773;-82
2021/12/09 03:10:19;;;;;;;7.22;3.45;;;2.10;99.90;;;;;;4988189;28;20034;-82
2021/12/09 03:12:45;;;;;;;14.65;4.65;;;2.00;99.90;;;;;;4986983;28;20033;-82
2021/12/09 03:15:11;;;;;;;16.00;3.90;;;1.80;99.90;;;;;;4983177;28;20109;-82
2021/12/09 03:17:40;;;;;;;9.90;3.33;;;1.80;99.90;;;;;;4985052;28;20084;-82
2021/12/09 03:20:08;;;;;;;11.88;4.30;;;1.80;99.90;;;;;;5003854;28;20042;-82
2021/12/09 03:22:34;;;;;;;6.53;3.10;;;1.70;99.90;;;;;;4988908;28;20033;-82
2021/12/09 03:25:00;;;;;;;13.82;4.15;;;1.80;99.90;;;;;;4989188;28;20033;-82
2021/12/09 03:27:25;;;;;;;12.57;4.05;;;1.80;99.90;;;;;;5002949;28;20034;-82
2021/12/09 03:29:51;;;;;;;11.00;4.60;;;1.70;99.90;;;;;;4978983;28;20092;-82
2021/12/09 03:32:17;;;;;;;8.18;3.20;;;1.60;99.90;;;;;;4984243;28;20517;-80
2021/12/09 03:34:43;;;;;;;11.68;4.13;;;1.60;99.90;;;;;;4963865;28;20037;-80
2021/12/09 03:37:11;;;;;;;15.90;4.35;;;1.50;99.90;;;;;;4985105;28;20060;-80
2021/12/09 03:39:38;;;;;;;13.52;4.45;;;1.30;99.90;;;;;;4998946;28;20034;-80
2021/12/09 03:42:04;;;;;;;12.98;4.18;;;1.30;99.90;;;;;;4967125;28;20038;-80
2021/12/09 03:44:30;;;;;;;15.40;4.60;;;1.20;99.90;;;;;;4976320;28;20048;-80
2021/12/09 03:46:57;;;;;;;7.63;4.15;;;1.10;99.90;;;;;;4992359;28;20563;-80
2021/12/09 03:49:24;;;;;;;12.38;4.53;;;1.10;99.90;;;;;;4976777;28;20485;-80
2021/12/09 03:51:50;;;;;;;12.35;4.30;;;1.20;99.90;;;;;;4992040;28;20029;-80
2021/12/09 03:54:16;;;;;;;18.95;4.82;;;1.00;99.90;;;;;;4989248;28;20034;-80
2021/12/09 03:56:41;;;;;;;10.43;4.80;;;1.00;99.90;;;;;;5005251;28;20069;-80
2021/12/09 03:59:07;;;;;;;14.20;5.07;;;0.90;99.90;;;;;;4993277;28;20041;-80
2021/12/09 04:01:33;;;;;;;10.02;4.20;;;1.00;99.90;;;;;;4988734;28;20036;-80
2021/12/09 04:03:59;;;;;;;13.45;4.32;;;1.00;99.90;;;;;;4981779;28;20417;-80
2021/12/09 04:06:24;;;;;;;9.43;3.40;;;1.00;99.90;;;;;;4992399;28;20053;-80
2021/12/09 04:08:50;;;;;;;13.38;4.40;;;1.00;99.90;;;;;;4982192;28;20042;-80
2021/12/09 04:11:17;;;;;;;5.97;2.75;;;0.90;99.90;;;;;;4992059;28;20797;-80
2021/12/09 04:13:42;;;;;;;12.55;3.75;;;1.00;99.90;;;;;;5005490;28;20618;-80
2021/12/09 04:16:08;;;;;;;9.98;3.88;;;1.00;99.90;;;;;;4984706;28;20040;-80
2021/12/09 04:18:37;;;;;;;14.38;4.07;;;1.00;99.90;;;;;;4973621;28;20037;-80
2021/12/09 04:21:04;;;;;;;6.28;3.08;;;0.90;99.90;;;;;;5001746;28;20354;-80
2021/12/09 04:23:29;;;;;;;8.50;2.97;;;1.00;99.90;;;;;;4977026;28;20503;-80
2021/12/09 04:25:55;;;;;;;6.65;3.10;;;1.20;99.90;;;;;;5002760;28;20061;-80
2021/12/09 04:28:21;;;;;;;12.75;3.83;;;1.10;99.90;;;;;;4976131;28;20105;-80
2021/12/09 04:30:46;;;;;;;9.32;4.00;;;1.20;99.90;;;;;;4980468;28;20551;-80
2021/12/09 04:33:12;;;;;;;10.40;5.18;;;1.10;99.90;;;;;;4976212;28;20608;-80
2021/12/09 04:35:38;;;;;;;12.85;5.88;;;0.80;99.90;;;;;;4964278;28;20650;-80
2021/12/09 04:38:03;;;;;;;15.40;6.47;;;0.90;99.90;;;;;;4975197;28;20064;-80
2021/12/09 04:40:29;;;;;;;19.60;5.72;;;0.80;99.90;;;;;;4990426;28;20072;-80
2021/12/09 04:42:54;;;;;;;13.25;5.63;;;0.60;99.90;;;;;;4990755;28;20062;-79
2021/12/09 04:45:20;;;;;;;10.32;5.38;;;0.50;99.90;;;;;;4973268;28;20057;-80
2021/12/09 04:47:45;;;;;;;14.13;4.97;;;0.50;99.90;;;;;;4988338;28;20054;-80
2021/12/09 04:50:11;;;;;;;8.93;4.85;;;0.40;99.90;;;;;;4987054;28;20033;-79
2021/12/09 04:52:37;;;;;;;16.00;5.13;;;0.50;99.90;;;;;;4989598;28;20037;-80
2021/12/09 04:55:05;;;;;;;9.45;5.13;;;0.50;99.90;;;;;;5006658;28;20033;-79
2021/12/09 04:57:30;;;;;;;19.25;6.00;;;0.40;99.90;;;;;;4989647;28;20440;-80
2021/12/09 04:59:56;;;;;;;17.58;5.57;;;0.30;99.90;;;;;;4991128;28;20033;-79
2021/12/09 05:02:28;;;;;;;7.22;3.38;;;0.60;99.90;;;;;;4988511;28;20033;-80
2021/12/09 05:04:53;;;;;;;13.32;3.75;;;0.60;99.90;;;;;;4976350;28;20505;-79
2021/12/09 05:07:19;;;;;;;12.10;5.10;;;0.70;99.90;;;;;;4973597;28;20029;-80
2021/12/09 05:09:50;;;;;;;12.93;4.85;;;0.80;99.90;;;;;;4990055;28;20113;-79
2021/12/09 05:12:16;;;;;;;10.02;4.70;;;0.70;99.90;;;;;;4990846;28;20025;-79
2021/12/09 05:14:45;;;;;;;8.30;3.95;;;0.60;99.90;;;;;;4971265;28;20068;-79
2021/12/09 05:17:10;;;;;;;16.27;5.47;;;0.70;99.90;;;;;;4978003;28;20047;-80
2021/12/09 05:19:36;;;;;;;18.90;6.78;;;0.60;99.90;;;;;;4986668;28;20033;-80
2021/12/09 05:22:02;;;;;;;19.25;9.15;;;0.60;99.90;;;;;;4979433;28;20041;-80
2021/12/09 05:24:27;;;;;;;18.45;8.68;;;0.50;99.90;;;;;;5004572;28;20033;-80
2021/12/09 05:26:55;;;;;;;13.45;7.85;;;0.30;99.90;;;;;;4977886;28;20394;-80
2021/12/09 05:29:22;;;;;;;13.38;7.35;;;0.30;99.90;;;;;;4988207;28;20053;-80
2021/12/09 05:34:31;;;;;;;15.68;5.80;;;0.20;99.90;;;;;;4992225;28;20048;-80
2021/12/09 05:36:57;;;;;;;16.67;7.82;;;0.20;99.90;;;;;;4984005;28;20593;-80
2021/12/09 05:39:23;;;;;;;17.27;5.82;;;0.40;99.90;;;;;;4990984;28;20029;-80
2021/12/09 05:41:49;;;;;;;6.75;3.83;;;0.40;99.90;;;;;;4972641;28;20423;-79
2021/12/09 05:44:15;;;;;;;12.63;5.10;;;0.50;99.90;;;;;;4974533;28;20441;-80
2021/12/09 05:46:43;;;;;;;8.80;4.18;;;0.70;99.90;;;;;;4987390;28;20389;-79
2021/12/09 05:49:09;;;;;;;10.95;4.50;;;0.60;99.90;;;;;;4977217;28;20112;-80
2021/12/09 05:51:34;;;;;;;14.55;4.97;;;0.60;99.90;;;;;;5005092;28;20152;-80
2021/12/09 05:54:00;;;;;;;10.10;4.10;;;0.60;99.90;;;;;;4970520;28;20064;-80
2021/12/09 05:56:26;;;;;;;13.05;4.30;;;0.60;99.90;;;;;;4973712;28;20053;-79
2021/12/09 05:58:51;;;;;;;16.27;4.35;;;0.70;99.90;;;;;;5003801;28;20448;-80
2021/12/09 06:01:17;;;;;;;10.27;4.38;;;0.50;99.90;;;;;;4983721;28;20270;-80
2021/12/09 06:03:42;;;;;;;12.10;4.25;;;0.50;99.90;;;;;;4988413;28;20057;-80
2021/12/09 06:06:08;;;;;;;14.45;4.35;;;0.50;99.90;;;;;;4978090;28;20471;-79
2021/12/09 06:08:36;;;;;;;10.18;4.53;;;0.50;99.90;;;;;;4986885;28;20457;-79
2021/12/09 06:11:03;;;;;;;9.48;4.18;;;0.50;99.90;;;;;;5001266;28;20056;-80
2021/12/09 06:13:30;;;;;;;21.05;6.03;;;0.50;99.90;;;;;;4973465;28;20033;-79
2021/12/09 06:15:56;;;;;;;11.88;4.45;;;0.50;99.90;;;;;;4967106;28;20033;-80
2021/12/09 06:18:21;;;;;;;12.30;4.35;;;0.50;99.90;;;;;;4971011;28;20404;-80
2021/12/09 06:20:47;;;;;;;17.48;4.43;;;0.50;99.90;;;;;;4987061;28;20866;-79
2021/12/09 06:23:12;;;;;;;10.88;3.83;;;0.60;99.90;;;;;;4985428;28;20033;-80
2021/12/09 06:25:38;;;;;;;10.23;4.47;;;0.60;99.90;;;;;;5003586;28;20056;-79
2021/12/09 06:28:04;;;;;;;7.97;3.25;;;0.60;99.90;;;;;;4970839;28;20349;-79
2021/12/09 06:30:29;;;;;;;12.88;4.13;;;0.60;99.90;;;;;;4986942;28;20028;-79
2021/12/09 06:32:55;;;;;;;13.38;4.20;;;0.60;99.90;;;;;;4990618;28;20025;-79
2021/12/09 06:35:21;;;;;;;10.27;4.18;;;0.70;99.90;;;;;;4971793;28;20054;-80
2021/12/09 06:37:48;;;;;;;14.30;5.63;;;0.60;99.90;;;;;;5001020;28;20047;-79
2021/12/09 06:40:18;;;;;;;9.23;3.97;;;0.50;99.90;;;;;;4985191;28;20103;-79
2021/12/09 06:42:44;;;;;;;8.45;4.03;;;0.70;99.90;;;;;;4983392;28;20125;-80
2021/12/09 06:45:10;;;;;;;15.98;4.18;;;0.60;99.90;;;;;;4990442;28;20556;-80
2021/12/09 06:47:36;;;;;;;8.80;4.00;;;0.70;99.90;;;;;;5004493;28;20048;-80
2021/12/09 06:50:01;;;;;;;11.93;4.05;;;0.70;99.90;;;;;;4986791;28;20655;-80
2021/12/09 06:52:28;;;;;;;7.05;3.97;;;0.70;99.90;;;;;;5000416;28;20075;-80
2021/12/09 06:54:54;;;;;;;9.00;3.60;;;0.70;99.90;;;;;;4972847;28;20109;-80
2021/12/09 06:57:19;;;;;;;8.48;4.25;;;0.70;99.90;;;;;;5000220;28;20124;-80
2021/12/09 06:59:45;;;;;;;8.15;3.28;;;0.70;99.90;;;;;;5001754;28;20052;-80
2021/12/09 07:02:10;;;;;;;7.95;3.85;;;0.70;99.90;;;;;;4965334;28;20128;-80
2021/12/09 07:04:36;;;;;;;14.50;4.40;;;0.70;99.90;;;;;;4972990;28;20109;-79
2021/12/09 07:07:01;;;;;;;6.45;3.50;;;0.70;99.90;;;;;;4976395;28;20486;-80
2021/12/09 07:09:29;;;;;;;7.53;3.42;;;0.80;99.90;;;;;;4987174;28;20477;-80
2021/12/09 07:11:55;;;;;;;5.93;2.72;;;0.80;99.90;;;;;;5003158;28;20515;-79
2021/12/09 07:14:21;;;;;;;7.53;3.47;;;0.90;99.90;;;;;;4985028;28;20444;-79
2021/12/09 07:16:47;;;;;;;5.53;2.53;;;0.90;99.90;;;;;;4973563;28;20033;-80
2021/12/09 07:19:12;;;;;;;3.65;1.42;;;0.80;99.90;;;;;;4992410;28;20072;-79
2021/12/09 07:21:38;;;;;;;6.78;2.75;;;0.90;99.90;;;;;;4974716;28;20104;-79
2021/12/09 07:24:04;;;;;;;5.60;2.38;;;0.90;99.90;;;;;;4984510;28;20084;-79
2021/12/09 07:26:32;;;;;;;11.20;3.63;;;0.90;99.90;;;;;;4989624;28;20029;-79
2021/12/09 07:28:58;;;;;;;12.13;3.80;;;0.90;99.90;;;;;;4991783;28;20130;-79
2021/12/09 07:31:26;;;;;;;9.38;4.35;;;0.90;99.90;;;;;;4976700;28;20482;-80
2021/12/09 07:33:52;;;;;;;11.32;4.68;;;0.90;99.90;;;;;;4988919;28;20030;-79
2021/12/09 07:36:18;;;;;;;12.05;4.30;;;0.90;99.90;;;;;;4990521;28;20036;-80
2021/12/09 07:38:46;;;;;;;13.43;4.03;;;0.90;99.90;;;;;;4971138;28;20485;-79
2021/12/09 07:41:15;;;;;;;16.00;5.22;;;0.90;99.90;;;;;;4990037;28;20030;-79
2021/12/09 07:43:41;;;;;;;9.43;4.13;;;0.90;99.90;;;;;;4987843;28;20059;-79
2021/12/09 07:46:06;;;;;;;10.70;4.03;;;0.90;99.90;;;;;;4971472;28;20033;-79
2021/12/09 07:48:32;;;;;;;12.40;4.43;;;1.00;99.90;;;;;;4973510;28;20034;-79
2021/12/09 07:50:57;;;;;;;12.38;4.25;;;1.00;99.90;;;;;;4986112;28;20026;-80
2021/12/09 07:53:23;;;;;;;17.13;4.28;;;1.00;99.90;;;;;;4989842;28;20030;-79
2021/12/09 07:55:50;;;;;;;9.63;4.18;;;1.00;99.90;;;;;;4988614;28;20041;-79
2021/12/09 07:58:15;;;;;;;10.88;3.92;;;1.00;99.90;;;;;;4974977;28;20030;-80
2021/12/09 08:00:41;;;;;;;8.25;3.85;;;1.00;99.90;;;;;;4971692;28;20084;-80
2021/12/09 08:03:08;;;;;;;16.10;4.15;;;1.00;99.90;;;;;;4970151;28;20022;-80
2021/12/09 08:05:35;;;;;;;10.30;5.18;;;1.00;99.90;;;;;;4991703;28;20033;-80
2021/12/09 08:08:01;;;;;;;14.82;5.28;;;1.10;99.90;;;;;;5006099;28;20049;-80
2021/12/09 08:10:26;;;;;;;17.33;4.95;;;1.00;99.90;;;;;;5004055;28;20977;-80
2021/12/09 08:12:52;;;;;;;17.38;5.68;;;1.10;99.90;;;;;;4975437;28;20030;-80
2021/12/09 08:15:18;;;;;;;19.05;5.30;;;1.10;99.90;;;;;;4985386;28;20910;-80
2021/12/09 08:17:46;;;;;;;9.45;4.35;;;1.10;99.90;;;;;;5005540;28;20923;-80
2021/12/09 08:20:14;;;;;;;15.43;4.90;;;1.10;99.90;;;;;;4971486;28;20125;-80
2021/12/09 08:22:40;;;;;;;8.48;4.97;;;1.10;99.90;;;;;;4985781;28;20118;-80
2021/12/09 08:25:08;;;;;;;7.85;3.67;;;1.20;99.90;;;;;;4989170;28;20391;-80
2021/12/09 08:27:36;;;;;;;11.93;4.75;;;1.20;99.90;;;;;;4973643;28;20033;-79
2021/12/09 08:30:06;;;;;;;11.55;4.60;;;1.20;99.90;;;;;;4993729;28;20033;-80
2021/12/09 08:32:32;;;;;;;14.13;4.45;;;1.30;99.90;;;;;;4985268;28;20536;-80
2021/12/09 08:34:58;;;;;;;13.68;4.85;;;1.40;99.90;;;;;;4990093;28;20113;-80
2021/12/09 08:37:24;;;;;;;12.55;5.25;;;1.50;99.90;;;;;;4995202;28;20125;-80
2021/12/09 08:39:49;;;;;;;15.93;5.40;;;1.60;99.90;;;;;;4975978;28;20034;-80
2021/12/09 08:42:15;;;;;;;12.50;5.13;;;1.60;99.90;;;;;;4990973;28;20506;-79
2021/12/09 08:44:41;;;;;;;8.40;3.75;;;1.60;99.90;;;;;;4980936;28;20030;-80
2021/12/09 08:47:07;;;;;;;13.43;4.63;;;1.70;99.90;;;;;;4988996;28;20034;-80
2021/12/09 08:49:32;;;;;;;13.75;4.38;;;1.70;99.90;;;;;;4990516;28;20033;-79
2021/12/09 08:51:58;;;;;;;17.05;5.10;;;1.90;99.90;;;;;;4985029;28;20084;-80
2021/12/09 08:54:23;;;;;;;14.43;3.97;;;1.90;99.90;;;;;;5002550;28;22532;-80
2021/12/09 08:56:51;;;;;;;11.05;4.90;;;2.00;99.90;;;;;;4984522;28;20057;-80
2021/12/09 08:59:21;;;;;;;9.45;4.40;;;2.20;99.90;;;;;;4986392;28;20026;-80
2021/12/09 09:01:47;;;;;;;16.05;4.95;;;2.20;99.90;;;;;;4972234;28;20124;-79
2021/12/09 09:04:12;;;;;;;13.18;3.67;;;2.40;99.90;;;;;;4986493;28;20489;-80
2021/12/09 09:06:48;;;;;;;13.75;4.38;;;2.50;99.90;;;;;;5005841;28;20049;-80
2021/12/09 09:09:14;;;;;;;10.90;3.78;;;2.50;99.90;;;;;;4984898;28;20486;-80
2021/12/09 09:11:40;;;;;;;12.05;4.50;;;2.60;99.90;;;;;;5006569;28;20037;-80
2021/12/09 09:14:06;;;;;;;7.22;2.53;;;2.70;99.90;;;;;;5006287;28;20552;-80
2021/12/09 09:16:31;;;;;;;12.70;4.25;;;2.80;99.90;;;;;;4986968;28;20043;-80
2021/12/09 09:18:57;;;;;;;9.63;3.80;;;3.00;99.90;;;;;;4984857;28;20403;-80
2021/12/09 09:21:23;;;;;;;8.95;4.00;;;3.10;99.90;;;;;;4977628;28;20031;-80
2021/12/09 09:23:48;;;;;;;10.68;4.60;;;3.10;99.90;;;;;;5006618;28;20051;-80
2021/12/09 09:26:14;;;;;;;13.90;3.90;;;3.30;99.90;;;;;;5004062;28;20029;-80
2021/12/09 09:28:40;;;;;;;13.48;4.10;;;3.30;99.90;;;;;;4972891;28;20030;-80
2021/12/09 09:31:07;;;;;;;10.27;4.57;;;3.40;99.90;;;;;;4988753;28;20026;-80
2021/12/09 09:33:33;;;;;;;10.13;3.42;;;3.50;99.90;;;;;;4972422;28;20030;-80
2021/12/09 09:35:59;;;;;;;8.88;3.10;;;3.50;99.90;;;;;;4991065;28;20022;-80
2021/12/09 09:38:24;;;;;;;15.57;4.60;;;3.80;99.90;;;;;;4973067;28;20029;-80
2021/12/09 09:40:54;;;;;;;19.10;5.60;;;3.60;99.90;;;;;;5003111;28;20034;-80
2021/12/09 09:43:29;;;;;;;4.68;2.83;;;3.70;99.90;;;;;;4980647;28;20438;-80
2021/12/09 09:45:55;;;;;;;6.35;2.83;;;3.60;99.90;;;;;;4989107;28;20044;-80
2021/12/09 09:48:22;;;;;;;15.82;3.83;;;3.70;99.90;;;;;;5000261;28;20067;-80
2021/12/09 09:50:49;;;;;;;12.23;4.35;;;3.80;99.90;;;;;;4970144;28;20045;-80
2021/12/09 09:53:15;;;;;;;10.52;4.45;;;3.70;99.90;;;;;;4987350;28;20045;-80
2021/12/09 09:55:41;;;;;;;11.68;3.55;;;3.70;99.90;;;;;;4977342;28;20918;-80
2021/12/09 09:58:07;;;;;;;15.70;5.82;;;3.70;99.90;;;;;;4975335;28;20029;-80
2021/12/09 10:00:32;;;;;;;6.15;3.58;;;3.80;99.90;;;;;;4973017;28;20038;-80
2021/12/09 10:02:59;;;;;;;11.73;3.80;;;3.90;99.90;;;;;;5001120;28;20397;-80
2021/12/09 10:05:33;;;;;;;2.22;1.35;;;3.90;99.90;;;;;;4989535;28;20029;-81
2021/12/09 10:07:58;;;;;;;6.70;3.35;;;3.80;99.90;;;;;;4986113;28;20061;-81
2021/12/09 10:10:24;;;;;;;10.88;3.70;;;3.90;99.90;;;;;;4970245;28;20487;-80
2021/12/09 10:13:03;;;;;;;8.05;3.10;;;4.00;99.90;;;;;;4988331;28;20038;-80
2021/12/09 10:15:46;;;;;;;9.88;4.50;;;4.00;99.90;;;;;;4978159;28;20057;-80
2021/12/09 10:18:13;;;;;;;9.82;4.00;;;4.10;99.90;;;;;;5006013;28;20056;-80
2021/12/09 10:20:48;;;;;;;11.43;4.53;;;4.00;99.90;;;;;;5001632;28;20060;-80
2021/12/09 10:23:22;;;;;;;9.05;3.50;;;4.10;99.90;;;;;;4998932;28;20037;-80
2021/12/09 10:26:11;;;;;;;7.22;4.30;;;4.00;99.90;;;;;;4972058;28;20037;-80
2021/12/09 10:28:37;;;;;;;8.90;3.80;;;4.10;99.90;;;;;;5002855;28;20034;-80
2021/12/09 10:31:24;;;;;;;7.32;2.72;;;4.10;99.90;;;;;;4985578;28;20040;-80
2021/12/09 10:34:14;;;;;;;13.55;3.50;;;4.10;99.90;;;;;;5005832;28;20033;-80
2021/12/09 10:36:45;;;;;;;8.32;3.90;;;4.10;99.90;;;;;;4978541;28;20075;-80
2021/12/09 10:39:51;;;;;;;9.90;3.90;;;4.20;99.90;;;;;;5000653;28;20038;-80
2021/12/09 10:42:36;;;;;;;8.90;3.20;;;4.20;99.90;;;;;;4989524;28;20140;-79
2021/12/09 10:45:12;;;;;;;9.85;3.67;;;4.20;99.90;;;;;;4978758;28;20410;-79
2021/12/09 10:52:53;;;;;;;11.07;5.05;;;4.30;99.90;;;;;;4999629;28;20044;-82
2021/12/09 10:55:30;;;;;;;9.23;3.28;;;4.30;99.90;;;;;;4995264;28;20033;-82
2021/12/09 10:58:07;;;;;;;11.07;3.72;;;4.40;99.90;;;;;;5005609;28;20049;-82
2021/12/09 11:00:44;;;;;;;13.13;3.75;;;4.40;99.90;;;;;;4994858;28;20486;-82
2021/12/09 11:03:10;;;;;;;7.30;2.80;;;4.40;99.90;;;;;;4979086;28;20030;-81
2021/12/09 11:05:48;;;;;;;5.70;2.75;;;4.50;99.90;;;;;;5005245;28;20392;-80
2021/12/09 11:08:15;;;;;;;8.35;3.15;;;4.50;99.90;;;;;;5011588;28;20478;-78
2021/12/09 11:10:46;;;;;;;4.25;1.52;;;4.50;99.90;;;;;;5004543;28;20591;-78
2021/12/09 11:13:12;;;;;;;1.77;1.33;;;4.60;99.90;;;;;;4996753;28;20052;-78
2021/12/09 11:15:48;;;;;;;10.13;3.25;;;4.60;99.90;;;;;;5009241;28;20045;-78
2021/12/09 11:18:44;;;;;;;13.75;3.60;;;4.60;99.90;;;;;;4993987;28;20037;-80
2021/12/09 11:21:10;;;;;;;14.02;4.60;;;4.70;99.90;;;;;;4987557;28;20579;-78
2021/12/09 11:23:39;;;;;;;10.82;3.92;;;4.70;99.90;;;;;;5025421;28;20026;-78
2021/12/09 11:26:23;;;;;;;12.05;4.30;;;4.70;99.90;;;;;;4977888;28;20424;-78
2021/12/09 11:28:56;;;;;;;11.80;4.18;;;4.80;99.90;;;;;;5007032;28;20228;-78
2021/12/09 11:31:25;;;;;;;6.97;2.45;;;4.80;99.90;;;;;;5007192;28;20033;-78
2021/12/09 11:33:55;;;;;;;7.28;3.17;;;4.80;99.90;;;;;;4988261;28;20037;-78
2021/12/09 11:36:41;;;;;;;13.90;3.67;;;4.80;99.90;;;;;;4979613;28;20033;-78
2021/12/09 11:39:11;;;;;;;7.55;3.20;;;4.90;99.90;;;;;;5010736;28;20065;-78
2021/12/09 11:41:38;;;;;;;12.38;4.30;;;4.80;99.90;;;;;;4977877;28;20034;-78
2021/12/09 11:44:06;;;;;;;9.18;3.50;;;4.90;99.90;;;;;;4976651;28;20038;-79
2021/12/09 11:46:33;;;;;;;14.52;4.80;;;4.90;99.90;;;;;;4977479;28;20030;-78
2021/12/09 11:48:59;;;;;;;6.88;3.53;;;4.80;99.90;;;;;;4997396;28;20030;-78
2021/12/09 11:51:26;;;;;;;9.65;3.67;;;4.90;99.90;;;;;;4984498;28;20107;-78
2021/12/09 11:53:56;;;;;;;7.70;3.97;;;5.00;99.90;;;;;;5009411;28;20021;-79
2021/12/09 11:59:19;;;;;;;14.98;4.82;;;5.00;99.90;;;;;;4992432;28;20125;-79
2021/12/09 12:13:40;;;;;;;8.85;4.38;;;5.20;99.90;;;;;;5007543;28;20036;-78
2021/12/09 12:16:48;;;;;;;11.55;4.80;;;5.20;99.90;;;;;;4970248;28;20046;-79
2021/12/09 12:19:30;;;;;;;6.65;3.67;;;5.20;99.90;;;;;;5019040;28;20040;-78
2021/12/09 12:27:39;;;;;;;11.95;5.28;;;5.10;99.90;;;;;;5007766;28;20036;-78
2021/12/09 12:40:15;;;;;;;10.02;4.93;;;5.20;99.90;;;;;;4999862;28;20030;-79
2021/12/09 12:43:11;;;;;;;13.95;5.22;;;5.10;99.90;;;;;;4965632;28;20398;-79
2021/12/09 12:45:54;;;;;;;9.82;4.68;;;5.10;99.90;;;;;;5002158;28;20132;-79
2021/12/09 12:48:49;;;;;;;11.35;4.75;;;5.20;99.90;;;;;;4998476;28;20026;-79
2021/12/09 12:51:48;;;;;;;6.55;3.80;;;5.20;99.90;;;;;;5016852;28;20111;-79
2021/12/09 12:57:34;;;;;;;10.20;2.10;;;5.10;99.90;;;;;;4947369;28;20411;-79
2021/12/09 13:00:23;;;;;;;6.10;2.20;;;5.10;99.90;;;;;;4950672;28;20074;-79
2021/12/09 13:05:58;;;;;;;8.55;3.42;;;5.10;99.90;;;;;;5005531;28;20033;-79
2021/12/09 13:08:53;;;;;;;8.35;3.75;;;5.20;99.90;;;;;;5003407;28;20116;-79
2021/12/09 13:11:52;;;;;;;13.07;3.53;;;5.10;99.90;;;;;;5006531;28;20044;-78
2021/12/09 13:14:28;;;;;;;14.02;5.00;;;5.10;99.90;;;;;;5023759;28;20083;-79
2021/12/09 13:17:02;;;;;;;;;;;5.10;99.90;;;;;;4992009;28;20116;-79
2021/12/09 13:22:03;;;;;;;7.90;2.92;;;5.10;99.90;;;;;;4985422;28;20038;-78
2021/12/09 13:24:38;;;;;;;8.88;2.45;;;5.00;99.90;;;;;;4988962;28;20509;-78
2021/12/09 13:27:27;;;;;;;5.40;2.40;;;5.00;99.90;;;;;;4988973;28;20168;-78
2021/12/09 13:49:07;;;;;;;9.27;4.28;;;4.80;99.90;;;;;;4989945;28;20037;-78
2021/12/09 13:54:23;;;;;;;8.80;3.65;;;4.80;99.90;;;;;;5007202;28;20079;-79
2021/12/09 13:56:52;;;;;;;9.52;3.85;;;4.80;99.90;;;;;;4972848;28;20041;-79
2021/12/09 13:59:19;;;;;;;10.80;4.05;;;4.80;99.90;;;;;;4974201;28;20769;-79
2021/12/09 14:01:45;;;;;;;8.95;4.45;;;4.80;99.90;;;;;;4973449;28;20128;-79
2021/12/09 14:04:11;;;;;;;6.00;3.05;;;4.80;99.90;;;;;;4987141;28;20030;-79
2021/12/09 14:06:38;;;;;;;7.35;2.55;;;4.80;99.90;;;;;;4974210;28;20113;-79
2021/12/09 14:09:04;;;;;;;10.55;4.18;;;4.80;99.90;;;;;;5001652;28;20053;-79